Main page
METAR-TAF:

METAR-TAF

Airports :

Gloucestershire Airport

Gloucester, England

latitude: 51-54N, longitude: 002-10W, elevation: 29 m

Current weather observation

The report was made 5 hours and 2 minutes ago, at 17:50 UTC
Wind 9 kt from the East
Temperature 6°C
Humidity 87%
Pressure 999 hPa
Visibility: 5000 m
Overcast at a height of 800 ft

METAR: EGBJ 211750Z 08009KT 5000 OVC008 06/04 Q0999

Time: 22:52 (22:52 UTC)

Forecast

The report was made 5 hours and 48 minutes ago, at 17:04 UTC
Forecast valid from 21 at 18 UTC to 21 at 20 UTC
Wind 8 kt from the East
Visibility: 8000 m
Broken clouds at a height of 800 ft
Temporary
from 21 at 18 UTC to 21 at 20 UTC
Visibility: 4000 m
rain, mist

TAF: EGBJ 211704Z 2118/2120 09008KT 8000 BKN008 TEMPO 2118/2120 4000 RA BR

Weather observations and forecasts of more than 4000 airports (METAR and TAF reports).

The available stations are represented by yellow and red dots on the map.

Hover mouse over dot to see the name of the station.

Then click to see weather observations and forecasts.

To change the map : click on the green buttons with a black cross to zoom in, on the green button with a dash to zoom out, or on the green arrows for adjacent maps.


METAR-TAF: